Time;durP1;ratioP1;P1;durP2;ratioP2;P2;SDS_P1;SDS_P2;PMS_P1;PMS_P2;Temp;Humidity;BMP_temperature;BMP_pressure;BME280_temperature;BME280_humidity;BME280_pressure;Samples;Min_cycle;Max_cycle;Signal;HPM_P1;HPM_P2
2022/03/05 00:00:48;;;;;;;;;;;3.60;89.10;;;3.28;81.76;100840.44;5050874;28;19928;-78
2022/03/05 00:03:17;;;;;;;;;;;4.00;89.30;;;3.29;81.13;100848.28;5055892;28;19928;-78
2022/03/05 00:05:44;;;;;;;;;;;3.70;89.60;;;3.29;81.29;100840.47;5033381;28;19961;-78
2022/03/05 00:08:12;;;;;;;;;;;3.80;89.60;;;3.21;83.91;100845.56;5020691;28;19938;-78
2022/03/05 00:10:39;;;;;;;;;;;3.60;90.30;;;3.16;84.22;100846.34;5052754;28;19929;-79
2022/03/05 00:13:06;;;;;;;;;;;3.70;90.60;;;3.12;82.99;100835.03;5065933;28;19924;-78
2022/03/05 00:15:33;;;;;;;;;;;4.60;90.50;;;3.12;85.46;100845.44;5050824;28;19929;-76
2022/03/05 00:18:01;;;;;;;;;;;3.60;90.70;;;3.15;84.75;100837.69;5051163;28;19928;-79
2022/03/05 00:20:30;;;;;;;;;;;4.40;90.80;;;3.10;85.29;100834.13;5051471;28;19928;-78
2022/03/05 00:22:57;;;;;;;;;;;3.60;90.90;;;3.08;87.07;100833.25;5035387;28;19928;-78
2022/03/05 00:25:25;;;;;;;;;;;4.00;91.00;;;3.10;84.81;100840.22;5052236;28;20270;-76
2022/03/05 00:27:53;;;;;;;;;;;4.80;91.10;;;3.05;86.78;100831.50;5070211;28;20436;-78
2022/03/05 00:30:24;;;;;;;;;;;3.50;91.40;;;3.03;84.75;100838.38;5074702;28;19946;-77
2022/03/05 00:32:51;;;;;;;;;;;4.20;91.10;;;3.04;83.20;100836.66;5054705;28;19929;-78
2022/03/05 00:35:18;;;;;;;;;;;4.90;90.90;;;2.97;85.40;100841.78;5057800;28;20304;-79
2022/03/05 00:37:45;;;;;;;;;;;4.40;91.00;;;2.94;85.37;100841.72;5057298;28;19924;-78
2022/03/05 00:40:12;;;;;;;;;;;3.30;90.80;;;2.91;86.73;100849.47;5041565;28;19924;-78
2022/03/05 00:42:42;;;;;;;;;;;3.40;91.20;;;2.89;89.50;100843.38;5054404;28;20343;-80
2022/03/05 00:45:13;;;;;;;;;;;4.90;92.20;;;2.88;89.08;100848.53;5051416;28;19982;-78
2022/03/05 00:47:43;;;;;;;;;;;3.30;91.60;;;2.80;91.45;100845.81;5051727;28;19928;-77
2022/03/05 00:50:10;;;;;;;;;;;3.70;91.90;;;2.78;93.43;100847.53;5051524;28;19924;-78
2022/03/05 00:52:37;;;;;;;;;;;3.10;92.30;;;2.80;90.98;100851.00;5035937;28;20019;-78
2022/03/05 00:55:09;;;;;;;;;;;4.40;92.50;;;2.77;91.31;100854.47;5037317;28;20389;-78
2022/03/05 00:57:37;;;;;;;;;;;3.20;92.10;;;2.74;90.45;100849.22;5057451;28;19924;-78
2022/03/05 01:00:05;;;;;;;;;;;3.10;92.10;;;2.67;91.72;100849.97;5057141;28;19928;-78
2022/03/05 01:02:33;;;;;;;;;;;3.30;92.10;;;2.64;92.07;100855.09;5059196;28;20019;-79
2022/03/05 01:05:00;;;;;;;;;;;3.20;92.60;;;2.78;91.32;100863.13;5058006;28;19936;-78
2022/03/05 01:07:27;;;;;;;;;;;5.80;93.40;;;2.66;91.25;100854.28;5074755;28;19928;-78
2022/03/05 01:09:54;;;;;;;;;;;3.20;92.30;;;2.69;90.32;100858.66;5056938;28;19928;-78
2022/03/05 01:12:22;;;;;;;;;;;4.80;92.50;;;2.63;91.93;100861.16;5055633;28;20455;-78
2022/03/05 01:14:49;;;;;;;;;;;3.60;92.30;;;2.51;96.03;100867.88;5053534;28;20278;-78
2022/03/05 01:17:17;;;;;;;;;;;3.20;92.70;;;2.54;94.28;100860.13;5070268;28;19946;-77
2022/03/05 01:19:44;;;;;;;;;;;3.10;92.60;;;2.57;94.43;100861.03;5072239;28;20016;-78
2022/03/05 01:22:11;;;;;;;;;;;3.80;93.20;;;2.53;94.38;100858.38;5059548;28;19924;-77
2022/03/05 01:24:41;;;;;;;;;;;3.10;92.80;;;2.51;96.21;100857.50;5039265;28;20077;-79
2022/03/05 01:27:11;;;;;;;;;;;3.10;93.00;;;2.44;94.88;100847.88;5042865;28;19970;-79
2022/03/05 01:29:37;;;;;;;;;;;4.10;93.10;;;2.45;96.19;100859.09;5043919;28;19924;-77
2022/03/05 01:32:07;;;;;;;;;;;2.90;93.20;;;2.39;94.73;100852.09;5074987;28;19936;-78
2022/03/05 01:34:54;;;;;;;;;;;2.90;92.80;;;2.43;94.43;100853.00;5060687;28;19917;-77
2022/03/05 01:37:21;;;;;;;;;;;2.90;93.00;;;2.38;97.18;100847.75;5059014;28;20581;-78
2022/03/05 01:39:52;;;;;;;;;;;2.90;93.50;;;2.37;95.36;100852.06;5073892;28;19986;-77
2022/03/05 01:42:20;;;;;;;;;;;2.80;93.00;;;2.33;96.41;100847.66;5039655;28;20027;-78
2022/03/05 01:44:47;;;;;;;;;;;3.50;93.50;;;2.35;96.37;100847.69;5058271;28;20296;-78
2022/03/05 01:47:14;;;;;;;;;;;3.00;93.30;;;2.35;96.31;100852.88;5040491;28;19924;-78
2022/03/05 01:49:41;;;;;;;;;;;2.80;93.50;;;2.25;99.35;100851.84;5070470;28;20420;-78
2022/03/05 01:52:09;;;;;;;;;;;2.80;93.70;;;2.20;97.69;100846.56;5070530;28;20562;-78
2022/03/05 01:54:36;;;;;;;;;;;2.70;93.40;;;2.16;98.75;100855.16;5070403;28;20357;-79
2022/03/05 01:57:07;;;;;;;;;;;2.60;93.20;;;2.16;97.89;100849.06;5056806;28;20472;-78
2022/03/05 01:59:34;;;;;;;;;;;2.70;93.50;;;2.13;97.99;100848.19;5074330;28;19935;-77
2022/03/05 02:02:04;;;;;;;;;;;4.30;93.70;;;2.14;99.08;100854.25;5054316;28;19928;-78
2022/03/05 02:04:33;;;;;;;;;;;3.40;93.90;;;2.08;100.00;100857.59;5071986;28;19932;-78
2022/03/05 02:07:04;;;;;;;;;;;3.40;94.20;;;2.05;100.00;100860.16;5072292;28;19929;-78
2022/03/05 02:09:31;;;;;;;;;;;2.90;94.10;;;2.02;99.78;100847.09;5040002;28;20019;-78
2022/03/05 02:11:58;;;;;;;;;;;4.20;94.30;;;2.02;100.00;100861.81;5041048;28;19933;-78
2022/03/05 02:14:25;;;;;;;;;;;2.70;94.00;;;1.99;100.00;100852.22;5072829;28;19928;-78
2022/03/05 02:16:52;;;;;;;;;;;3.80;94.10;;;2.00;100.00;100851.38;5056788;28;19939;-78
2022/03/05 02:19:37;;;;;;;;;;;2.60;94.50;;;1.93;100.00;100852.13;5072121;28;20015;-78
2022/03/05 02:22:06;;;;;;;;;;;4.90;95.20;;;1.89;100.00;100842.53;5038076;28;20357;-78
2022/03/05 02:24:33;;;;;;;;;;;4.40;94.60;;;1.89;100.00;100845.13;5037996;28;19970;-78
2022/03/05 02:27:02;;;;;;;;;;;3.00;94.50;;;1.81;100.00;100860.56;5038485;28;20657;-78
2022/03/05 02:29:31;;;;;;;;;;;5.00;95.20;;;1.80;100.00;100853.63;5054883;28;19943;-78
2022/03/05 02:31:58;;;;;;;;;;;5.20;95.30;;;1.82;100.00;100855.38;5055660;28;19929;-78
2022/03/05 02:34:25;;;;;;;;;;;4.10;95.00;;;1.77;100.00;100856.13;5055829;28;19951;-78
2022/03/05 02:36:52;;;;;;;;;;;2.40;94.50;;;1.74;100.00;100856.97;5072367;28;19935;-78
2022/03/05 02:39:19;;;;;;;;;;;5.10;95.50;;;1.74;100.00;100858.66;5055691;28;20028;-78
2022/03/05 02:41:46;;;;;;;;;;;2.20;94.60;;;1.67;100.00;100861.16;5075002;28;19928;-78
2022/03/05 02:44:13;;;;;;;;;;;2.40;94.90;;;1.66;100.00;100862.00;5056640;28;19928;-78
2022/03/05 02:46:43;;;;;;;;;;;2.30;94.80;;;1.57;100.00;100851.41;5074162;28;20027;-79
2022/03/05 02:49:10;;;;;;;;;;;2.20;94.90;;;1.60;100.00;100859.25;5073656;28;19928;-78
2022/03/05 02:51:37;;;;;;;;;;;2.10;94.90;;;1.53;100.00;100858.25;5041164;28;19936;-78
2022/03/05 02:54:04;;;;;;;;;;;2.10;94.70;;;1.48;100.00;100870.25;5057282;28;20031;-78
2022/03/05 02:56:31;;;;;;;;;;;2.00;94.90;;;1.49;100.00;100858.19;5043013;28;19924;-78
2022/03/05 02:58:59;;;;;;;;;;;3.00;95.40;;;1.47;100.00;100863.31;5043099;28;19928;-78
2022/03/05 03:01:29;;;;;;;;;;;1.40;95.10;;;1.44;100.00;100871.03;5077171;28;19924;-78
2022/03/05 03:03:58;;;;;;;;;;;3.90;95.50;;;1.36;100.00;100873.47;5076907;28;19924;-78
2022/03/05 03:06:25;;;;;;;;;;;2.10;94.90;;;1.30;100.00;100867.28;5060614;28;20524;-78
2022/03/05 03:08:53;;;;;;;;;;;1.60;95.10;;;1.25;100.00;100867.16;5077357;28;19943;-78
2022/03/05 03:11:20;;;;;;;;;;;3.70;95.80;;;1.24;100.00;100865.41;5060982;28;19924;-79
2022/03/05 03:13:47;;;;;;;;;;;1.80;96.00;;;1.25;100.00;100865.47;5076205;28;20034;-78
2022/03/05 03:16:15;;;;;;;;;;;4.00;96.00;;;1.24;100.00;100868.00;5077281;28;19928;-78
2022/03/05 03:18:42;;;;;;;;;;;1.70;95.70;;;1.24;100.00;100865.41;5077841;28;19977;-78
2022/03/05 03:21:10;;;;;;;;;;;0.20;95.70;;;1.20;100.00;100868.78;5077118;28;19934;-78
2022/03/05 03:23:39;;;;;;;;;;;1.70;95.50;;;1.19;100.00;100857.53;5076534;28;19958;-78
2022/03/05 03:26:06;;;;;;;;;;;3.90;96.30;;;1.17;100.00;100860.91;5076754;28;20300;-79
2022/03/05 03:28:48;;;;;;;;;;;1.90;95.60;;;1.21;100.00;100873.13;5079403;28;19971;-78
2022/03/05 03:31:15;;;;;;;;;;;1.80;95.50;;;1.12;100.00;100866.88;5075637;28;19924;-79
2022/03/05 03:33:42;;;;;;;;;;;1.70;95.50;;;1.05;100.00;100877.97;5072360;28;19924;-78
2022/03/05 03:36:09;;;;;;;;;;;2.30;95.40;;;1.05;100.00;100877.06;5072386;28;19931;-79
2022/03/05 03:38:36;;;;;;;;;;;1.70;95.30;;;0.99;100.00;100870.03;5072234;28;19932;-78
2022/03/05 03:41:03;;;;;;;;;;;1.60;95.20;;;0.87;100.00;100874.94;5054996;28;19935;-78
2022/03/05 03:43:30;;;;;;;;;;;1.50;95.30;;;0.77;100.00;100876.41;5067621;28;19933;-78
2022/03/05 03:45:57;;;;;;;;;;;1.50;95.20;;;0.72;100.00;100873.72;5068015;28;19924;-78
2022/03/05 03:48:26;;;;;;;;;;;1.40;95.20;;;0.70;100.00;100877.97;5051833;28;20339;-78
2022/03/05 03:50:54;;;;;;;;;;;1.40;95.10;;;0.65;100.00;100885.66;5068860;28;19935;-79
2022/03/05 03:53:21;;;;;;;;;;;1.40;95.40;;;0.47;100.00;100883.44;5067237;28;19924;-78
2022/03/05 03:56:00;;;;;;;;;;;1.10;95.30;;;0.40;100.00;100885.00;5057575;28;19936;-79
2022/03/05 03:58:27;;;;;;;;;;;1.30;95.30;;;0.47;100.00;100888.63;5073949;28;19931;-78
2022/03/05 04:00:54;;;;;;;;;;;1.10;95.50;;;0.33;100.00;100889.97;5072053;28;20364;-78
2022/03/05 04:03:21;;;;;;;;;;;0.90;95.20;;;0.12;100.00;100888.59;5070932;28;20031;-78
2022/03/05 04:05:48;;;;;;;;;;;1.10;95.40;;;0.22;100.00;100900.91;5053191;28;19928;-78
2022/03/05 04:11:04;;;;;;;;;;;0.70;95.40;;;0.08;100.00;100897.06;5058335;28;19992;-78
2022/03/05 04:13:31;;;;;;;;;;;3.00;96.20;;;0.01;100.00;100900.34;5055415;28;19986;-78
2022/03/05 04:15:58;;;;;;;;;;;0.70;95.90;;;-0.19;100.00;100892.91;5073081;28;20006;-78
2022/03/05 04:18:25;;;;;;;;;;;1.40;96.00;;;-0.36;100.00;100895.00;5054453;28;19944;-78
2022/03/05 04:20:52;;;;;;;;;;;0.50;95.60;;;-0.37;100.00;100899.31;5051648;28;19924;-78
2022/03/05 04:23:19;;;;;;;;;;;0.60;95.80;;;-0.41;100.00;100900.03;5066234;28;19928;-78
2022/03/05 04:25:46;;;;;;;;;;;0.70;95.90;;;-0.41;100.00;100894.84;5051402;28;19929;-78
2022/03/05 04:28:14;;;;;;;;;;;0.40;96.00;;;-0.36;100.00;100902.75;5053253;28;19928;-78
2022/03/05 04:30:42;;;;;;;;;;;0.50;96.20;;;-0.35;100.00;100905.38;5072422;28;19978;-79
2022/03/05 04:33:10;;;;;;;;;;;0.50;96.60;;;-0.33;100.00;100906.31;5071563;28;20442;-78
2022/03/05 04:35:37;;;;;;;;;;;0.30;96.60;;;-0.24;100.00;100909.97;5072638;28;20027;-78
2022/03/05 04:38:04;;;;;;;;;;;0.60;96.50;;;-0.32;100.00;100914.94;5058692;28;19924;-79
2022/03/05 04:40:31;;;;;;;;;;;0.40;96.70;;;-0.24;100.00;100912.56;5055591;28;19925;-78
2022/03/05 04:42:59;;;;;;;;;;;0.60;96.90;;;-0.23;100.00;100911.75;5070461;28;19966;-78
2022/03/05 04:45:27;;;;;;;;;;;0.50;97.20;;;-0.26;100.00;100914.22;5070512;28;19990;-78
2022/03/05 04:47:53;;;;;;;;;;;1.50;97.50;;;-0.18;100.00;100917.94;5070273;28;20328;-78
2022/03/05 04:50:20;;;;;;;;;;;0.50;97.20;;;-0.16;100.00;100918.84;5054337;28;19932;-77
2022/03/05 04:52:50;;;;;;;;;;;0.60;96.90;;;-0.11;100.00;100925.03;5070155;28;20675;-77
2022/03/05 04:55:17;;;;;;;;;;;0.70;96.50;;;-0.14;100.00;100919.75;5069036;28;19935;-77
2022/03/05 04:57:44;;;;;;;;;;;0.50;96.70;;;-0.12;100.00;100922.41;5078491;28;19930;-79
2022/03/05 05:00:12;;;;;;;;;;;0.60;96.80;;;-0.12;100.00;100922.41;5077238;28;19928;-78
2022/03/05 05:02:39;;;;;;;;;;;0.50;96.60;;;-0.12;100.00;100922.41;5054287;28;19928;-78
2022/03/05 05:05:06;;;;;;;;;;;0.50;97.00;;;-0.27;100.00;100925.41;5071563;28;19928;-78
2022/03/05 05:07:33;;;;;;;;;;;0.60;96.60;;;-0.32;100.00;100921.00;5054099;28;19932;-78
2022/03/05 05:10:00;;;;;;;;;;;0.50;96.70;;;-0.40;100.00;100927.63;5059146;28;19925;-78
2022/03/05 05:12:27;;;;;;;;;;;0.60;96.50;;;-0.45;100.00;100927.50;5053272;28;19932;-78
2022/03/05 05:14:53;;;;;;;;;;;0.50;96.70;;;-0.58;100.00;100930.56;5053555;28;20003;-79
2022/03/05 05:17:23;;;;;;;;;;;0.50;96.80;;;-0.78;100.00;100938.56;5053928;28;19945;-78
2022/03/05 05:19:51;;;;;;;;;;;0.20;96.20;;;-0.75;100.00;100932.59;5053813;28;19928;-78
2022/03/05 05:22:18;;;;;;;;;;;0.30;97.10;;;-0.87;100.00;100940.84;5053849;28;20634;-78
2022/03/05 05:24:45;;;;;;;;;;;0.20;97.40;;;-0.88;100.00;100945.13;5053501;28;19924;-78
2022/03/05 05:27:18;;;;;;;;;;;0.10;97.30;;;-0.88;100.00;100941.69;5070444;28;19936;-77
2022/03/05 05:29:45;;;;;;;;;;;0.20;97.00;;;-0.96;100.00;100945.72;5074822;28;19947;-79
2022/03/05 05:32:14;;;;;;;;;;;-0.10;97.60;;;-0.96;100.00;100956.03;5074295;28;20293;-78
2022/03/05 05:34:41;;;;;;;;;;;-1.80;96.90;;;-0.91;100.00;100954.50;5057342;28;19954;-77
2022/03/05 05:37:14;;;;;;;;;;;-0.10;97.60;;;-1.06;100.00;100954.88;5082326;28;20286;-78
2022/03/05 05:39:42;;;;;;;;;;;0.10;97.70;;;-1.12;100.00;100963.28;5059713;28;19924;-78
2022/03/05 05:42:09;;;;;;;;;;;-0.10;97.50;;;-1.14;100.00;100959.78;5045449;28;19934;-78
2022/03/05 05:44:36;;;;;;;;;;;-0.10;97.80;;;-1.13;100.00;100960.66;5043767;28;19924;-78
2022/03/05 05:47:04;;;;;;;;;;;-0.10;98.00;;;-1.06;100.00;100965.19;5060441;28;20363;-78
2022/03/05 05:49:35;;;;;;;;;;;0.00;98.00;;;-1.16;100.00;100962.31;5060495;28;19928;-78
2022/03/05 05:52:06;;;;;;;;;;;-0.30;97.50;;;-1.42;100.00;100958.84;5076065;28;20018;-78
2022/03/05 05:54:35;;;;;;;;;;;-0.20;97.30;;;-1.48;100.00;100964.69;5072860;28;19935;-78
2022/03/05 05:57:03;;;;;;;;;;;-0.20;96.90;;;-1.52;100.00;100965.38;5036530;28;19928;-77
2022/03/05 05:59:39;;;;;;;;;;;-0.50;97.90;;;-1.59;100.00;100963.44;5080052;28;19924;-78
2022/03/05 06:02:07;;;;;;;;;;;-0.30;97.90;;;-1.78;100.00;100962.78;5052899;28;19932;-78
2022/03/05 06:04:34;;;;;;;;;;;1.20;98.00;;;-1.73;100.00;100971.53;5053592;28;19924;-77
2022/03/05 06:07:01;;;;;;;;;;;-0.30;99.10;;;-1.81;100.00;100967.78;5071757;28;20407;-77
2022/03/05 06:09:28;;;;;;;;;;;-0.80;98.80;;;-2.02;100.00;100971.34;5070385;28;19928;-78
2022/03/05 06:11:58;;;;;;;;;;;-0.50;99.30;;;-1.91;100.00;100970.88;5070772;28;20465;-78
2022/03/05 06:14:25;;;;;;;;;;;-0.80;98.50;;;-1.88;100.00;100968.41;5038652;28;19929;-77
2022/03/05 06:16:52;;;;;;;;;;;-0.80;99.40;;;-2.04;100.00;100975.59;5038380;28;20015;-77
2022/03/05 06:19:19;;;;;;;;;;;-0.90;99.30;;;-2.12;100.00;100976.97;5044952;28;19972;-77
2022/03/05 06:21:47;;;;;;;;;;;-0.90;98.60;;;-2.11;100.00;100980.47;5071938;28;20274;-77
2022/03/05 06:24:13;;;;;;;;;;;-1.00;98.80;;;-2.21;100.00;100984.38;5039285;28;19999;-77
2022/03/05 06:26:43;;;;;;;;;;;-1.00;98.70;;;-2.21;100.00;100981.81;5055037;28;19924;-77
2022/03/05 06:29:28;;;;;;;;;;;-0.90;98.50;;;-2.07;100.00;100990.06;5072345;28;20401;-77
2022/03/05 06:31:58;;;;;;;;;;;-0.70;99.50;;;-2.02;100.00;100992.00;5040457;28;19924;-75
2022/03/05 06:34:27;;;;;;;;;;;-1.10;99.40;;;-1.90;100.00;100990.69;5067996;28;20290;-76
2022/03/05 06:36:55;;;;;;;;;;;-1.10;99.70;;;-1.87;100.00;100990.81;5034236;28;20408;-77
2022/03/05 06:39:22;;;;;;;;;;;-0.90;99.90;;;-1.83;100.00;100990.09;5077582;28;19978;-78
2022/03/05 06:41:49;;;;;;;;;;;0.40;99.90;;;-1.73;100.00;100997.34;5060605;28;19928;-77
2022/03/05 06:44:21;;;;;;;;;;;0.10;99.90;;;-1.62;100.00;101000.31;5058442;28;19928;-77
2022/03/05 06:49:54;;;;;;;;;;;0.00;99.30;;;-1.28;100.00;101010.97;5078013;28;19996;-78
2022/03/05 06:53:20;;;;;;;;;;;-0.80;99.60;;;-1.14;100.00;101014.00;5093099;28;19925;-77
2022/03/05 06:57:29;;;;;;;;;;;-0.70;99.20;;;-0.96;100.00;101018.03;5085769;28;20154;-77
2022/03/05 07:13:17;;;;;;;;;;;0.90;98.60;;;-0.43;100.00;101024.09;5035417;28;20027;-77
2022/03/05 07:15:44;;;;;;;;;;;0.10;98.20;;;-0.37;100.00;101026.00;5036303;28;19924;-78
2022/03/05 07:18:29;;;;;;;;;;;1.70;98.60;;;-0.27;100.00;101013.34;5056641;28;19916;-77
2022/03/05 07:20:59;;;;;;;;;;;2.30;98.70;;;-0.17;100.00;101023.16;5075088;28;20301;-77
2022/03/05 07:23:26;;;;;;;;;;;1.10;97.90;;;-0.09;100.00;101029.41;5061991;28;20390;-78
2022/03/05 07:25:52;;;;;;;;;;;0.40;98.20;;;-0.04;100.00;101017.53;5066348;28;19928;-77
2022/03/05 07:28:19;;;;;;;;;;;1.60;98.50;;;0.06;100.00;101020.38;5049294;28;19928;-78
2022/03/05 07:30:47;;;;;;;;;;;0.70;98.70;;;0.16;100.00;101016.34;5064436;28;20482;-78
2022/03/05 07:33:14;;;;;;;;;;;0.70;98.60;;;0.23;100.00;101016.56;5062224;28;19924;-78
2022/03/05 07:35:41;;;;;;;;;;;0.90;98.60;;;0.31;100.00;101018.50;5035599;28;20003;-77
2022/03/05 07:38:08;;;;;;;;;;;2.50;99.10;;;0.42;100.00;101015.38;5031703;28;19929;-77
2022/03/05 07:40:36;;;;;;;;;;;1.00;98.90;;;0.53;100.00;101014.81;5050255;28;19956;-75
2022/03/05 07:43:03;;;;;;;;;;;1.80;99.40;;;0.60;100.00;101023.63;5021080;28;20317;-76
2022/03/05 07:45:32;;;;;;;;;;;0.60;98.40;;;0.66;100.00;101016.00;5065839;28;19928;-77
2022/03/05 07:48:14;;;;;;;;;;;1.10;98.50;;;0.75;100.00;101020.56;5074117;28;19931;-78
2022/03/05 07:50:42;;;;;;;;;;;3.70;99.30;;;0.83;100.00;101014.75;5067347;28;20427;-78
2022/03/05 07:53:09;;;;;;;;;;;1.40;98.20;;;0.91;100.00;101014.94;5067497;28;20558;-78
2022/03/05 07:55:36;;;;;;;;;;;1.40;98.10;;;1.02;100.00;101023.03;5067508;28;19924;-78
2022/03/05 07:58:02;;;;;;;;;;;1.40;98.20;;;1.10;100.00;101025.81;5068006;28;19936;-77
2022/03/05 08:00:30;;;;;;;;;;;1.40;98.00;;;1.21;100.00;101028.66;5071177;28;20316;-78
2022/03/05 08:02:57;;;;;;;;;;;1.70;98.00;;;1.26;100.00;101021.88;5045966;28;19932;-77
2022/03/05 08:05:24;;;;;;;;;;;2.10;98.00;;;1.30;100.00;101028.00;5079155;28;19928;-77
2022/03/05 08:07:54;;;;;;;;;;;3.90;98.00;;;1.39;100.00;101030.81;5068328;28;20421;-77
2022/03/05 08:10:21;;;;;;;;;;;1.90;97.30;;;1.43;100.00;101027.47;5075530;28;19928;-77
2022/03/05 08:12:48;;;;;;;;;;;2.60;97.20;;;1.52;100.00;101032.00;5057477;28;19928;-76
2022/03/05 08:15:15;;;;;;;;;;;1.80;96.70;;;1.61;100.00;101031.34;5057328;28;19935;-76
2022/03/05 08:18:00;;;;;;;;;;;2.00;96.80;;;1.72;100.00;101026.41;5075782;28;19924;-75
2022/03/05 08:20:29;;;;;;;;;;;2.10;96.50;;;1.79;100.00;101034.38;5075907;28;20289;-76
2022/03/05 08:22:56;;;;;;;;;;;2.20;96.60;;;1.83;100.00;101030.13;5075071;28;19940;-76
2022/03/05 08:25:23;;;;;;;;;;;3.80;96.90;;;1.92;100.00;101032.06;5090285;28;19983;-76
2022/03/05 08:27:51;;;;;;;;;;;2.50;96.40;;;1.97;100.00;101023.53;5077636;28;20270;-76
2022/03/05 08:30:18;;;;;;;;;;;2.50;96.30;;;2.05;100.00;101022.81;5062682;28;19937;-76
2022/03/05 08:32:46;;;;;;;;;;;2.50;96.00;;;2.10;100.00;101026.38;5064357;28;19928;-77
2022/03/05 08:35:13;;;;;;;;;;;2.50;95.90;;;2.19;100.00;101025.72;5076118;28;19929;-77
2022/03/05 08:37:42;;;;;;;;;;;3.90;96.10;;;2.28;100.00;101028.47;5054872;28;19924;-77
2022/03/05 08:40:11;;;;;;;;;;;2.60;95.60;;;2.31;100.00;101023.34;5054061;28;19928;-76
2022/03/05 08:42:38;;;;;;;;;;;2.80;95.60;;;2.35;100.00;101029.50;5057757;28;19932;-78
2022/03/05 08:45:08;;;;;;;;;;;3.90;96.10;;;2.46;100.00;101037.50;5071016;28;20313;-77
2022/03/05 08:47:35;;;;;;;;;;;2.90;95.50;;;2.56;100.00;101026.44;5067864;28;19928;-77
2022/03/05 08:50:04;;;;;;;;;;;3.00;95.40;;;2.65;100.00;101036.13;5074634;28;19928;-77
2022/03/05 08:52:36;;;;;;;;;;;2.90;95.10;;;2.75;100.00;101029.41;5076045;28;19935;-77
2022/03/05 08:55:08;;;;;;;;;;;3.00;95.10;;;2.84;98.74;101022.63;5075424;28;19934;-77
2022/03/05 08:57:35;;;;;;;;;;;4.50;95.30;;;2.95;98.32;101027.16;5059795;28;19924;-77
2022/03/05 09:00:05;;;;;;;;;;;5.20;95.40;;;3.05;93.87;101025.59;5063374;28;19932;-77
2022/03/05 09:02:32;;;;;;;;;;;3.50;94.30;;;3.11;92.91;101029.19;5060622;28;20007;-78
2022/03/05 09:04:59;;;;;;;;;;;3.30;94.10;;;3.21;91.29;101022.41;5073813;28;20289;-76
2022/03/05 09:07:27;;;;;;;;;;;4.20;94.20;;;3.30;90.09;101028.63;5059568;28;19936;-78
2022/03/05 09:10:01;;;;;;;;;;;3.80;93.90;;;3.35;89.28;101032.19;5076612;28;19947;-76
2022/03/05 09:12:29;;;;;;;;;;;3.70;93.70;;;3.46;88.82;101028.03;5082219;28;19928;-75
2022/03/05 09:15:01;;;;;;;;;;;3.70;93.70;;;3.56;86.28;101026.44;5062323;28;20545;-75
2022/03/05 09:17:28;;;;;;;;;;;3.90;93.30;;;3.67;85.76;101027.50;5045644;28;19928;-75
2022/03/05 09:19:58;;;;;;;;;;;6.30;94.00;;;3.78;83.14;101025.03;5078457;28;19947;-76
2022/03/05 09:22:49;;;;;;;;;;;3.70;92.90;;;3.85;82.90;101028.63;5038151;28;19982;-79
2022/03/05 09:25:42;;;;;;;;;;;4.00;92.80;;;3.94;80.06;101025.25;5065644;28;19932;-76
2022/03/05 09:28:09;;;;;;;;;;;4.10;92.40;;;3.97;78.07;101020.94;5058369;28;19944;-75
2022/03/05 09:30:40;;;;;;;;;;;5.90;92.50;;;4.05;77.63;101023.66;5072155;28;19971;-76
2022/03/05 09:33:07;;;;;;;;;;;4.40;91.90;;;4.11;78.89;101015.06;5051711;28;19928;-76
2022/03/05 09:35:34;;;;;;;;;;;4.30;92.10;;;4.21;78.99;101018.66;5054136;28;19924;-79
2022/03/05 09:38:01;;;;;;;;;;;6.70;92.80;;;4.34;76.34;101019.69;5039465;28;20290;-74
2022/03/05 09:40:28;;;;;;;;;;;6.10;92.20;;;4.44;75.71;101024.13;5068001;28;19929;-78
2022/03/05 09:42:56;;;;;;;;;;;4.40;91.60;;;4.49;73.18;101014.66;5056259;28;20126;-79
2022/03/05 09:45:23;;;;;;;;;;;4.70;91.30;;;4.54;70.95;101015.59;5074679;28;19928;-78
2022/03/05 09:47:50;;;;;;;;;;;4.70;90.80;;;4.59;69.71;101009.53;5059515;28;19925;-78
2022/03/05 09:50:17;;;;;;;;;;;4.70;90.30;;;4.68;68.62;101013.16;5074230;28;19924;-79
2022/03/05 09:52:44;;;;;;;;;;;6.10;90.50;;;4.74;67.29;100999.28;5056840;28;19929;-77
2022/03/05 09:55:11;;;;;;;;;;;4.90;89.60;;;4.92;66.10;101005.56;5074506;28;19928;-80
2022/03/05 09:57:38;;;;;;;;;;;7.10;90.00;;;5.03;64.88;100998.69;5056435;28;19925;-79
2022/03/05 10:00:06;;;;;;;;;;;5.10;88.00;;;5.14;64.31;100998.78;5040258;28;19990;-77
2022/03/05 10:02:34;;;;;;;;;;;6.80;88.70;;;5.34;60.56;101000.69;5040955;28;19929;-78
2022/03/05 10:05:14;;;;;;;;;;;5.40;85.30;;;5.44;57.30;101001.63;5038692;28;19974;-77
2022/03/05 10:08:07;;;;;;;;;;;5.60;81.40;;;5.47;57.30;100994.72;5072201;28;19935;-76
2022/03/05 10:10:54;;;;;;;;;;;5.70;81.50;;;5.63;55.81;100998.28;5057837;28;19959;-78
2022/03/05 10:13:30;;;;;;;;;;;5.70;79.90;;;5.70;54.58;100998.31;5051588;28;19928;-76
2022/03/05 10:16:29;;;;;;;;;;;5.80;78.50;;;5.80;53.97;100995.78;5038906;28;20022;-77
2022/03/05 10:18:57;;;;;;;;;;;6.00;77.50;;;5.89;53.58;100999.28;5057357;28;20449;-78
2022/03/05 10:21:34;;;;;;;;;;;6.60;75.60;;;5.93;52.01;100991.50;5063775;28;19971;-77
2022/03/05 10:24:08;;;;;;;;;;;6.00;73.20;;;6.00;52.19;100988.91;5049470;28;19924;-77
2022/03/05 10:27:00;;;;;;;;;;;6.10;72.90;;;6.20;50.67;100992.53;5049726;28;20043;-77
2022/03/05 10:29:35;;;;;;;;;;;6.30;70.20;;;6.22;49.74;100997.75;5066235;28;20589;-78
2022/03/05 10:32:10;;;;;;;;;;;6.30;69.30;;;6.27;49.75;100987.31;5082842;28;20451;-78
2022/03/05 10:34:50;;;;;;;;;;;6.50;68.80;;;6.32;49.22;100989.09;5048170;28;19929;-77
2022/03/05 10:37:18;;;;;;;;;;;6.50;67.90;;;6.37;49.28;100989.97;5059024;28;20526;-77
2022/03/05 10:39:46;;;;;;;;;;;6.60;67.30;;;6.47;48.67;100996.09;5065479;28;19982;-77
2022/03/05 10:42:20;;;;;;;;;;;6.60;65.60;;;6.55;47.02;100993.50;5061216;28;19932;-77
2022/03/05 10:45:05;;;;;;;;;;;6.80;63.30;;;6.63;46.64;100985.66;5058265;28;19971;-78
2022/03/05 10:47:40;;;;;;;;;;;6.70;62.00;;;6.77;47.31;100990.94;5070504;28;20381;-78
2022/03/05 10:50:29;;;;;;;;;;;6.80;63.60;;;6.84;46.02;100986.59;5063236;28;19924;-78
2022/03/05 10:53:01;;;;;;;;;;;6.90;62.50;;;6.97;45.67;100985.75;5068691;28;19967;-78
2022/03/05 10:55:35;;;;;;;;;;;7.00;60.10;;;7.02;44.67;100980.50;5068774;28;19936;-78
2022/03/05 10:58:17;;;;;;;;;;;7.10;59.70;;;7.10;45.57;100984.00;5054090;28;20215;-78
2022/03/05 11:00:49;;;;;;;;;;;7.20;59.20;;;7.23;45.18;100979.63;5055380;28;20000;-81
2022/03/05 11:03:17;;;;;;;;;;;7.30;58.70;;;7.36;43.49;100978.75;5070176;28;19986;-77
2022/03/05 11:05:45;;;;;;;;;;;8.60;57.40;;;7.43;42.65;100976.16;5069389;28;19971;-77
2022/03/05 11:08:13;;;;;;;;;;;7.70;55.60;;;7.52;42.07;100963.91;5036452;28;20140;-76
2022/03/05 11:10:40;;;;;;;;;;;7.70;54.10;;;7.52;41.66;100960.41;5070309;28;20050;-77
2022/03/05 11:13:07;;;;;;;;;;;7.60;54.20;;;7.63;41.60;100963.88;5034947;28;20398;-77
2022/03/05 11:15:36;;;;;;;;;;;7.70;53.70;;;7.70;40.80;100956.88;5054350;28;19928;-77
2022/03/05 11:18:04;;;;;;;;;;;7.80;52.90;;;7.85;39.93;100950.69;5053534;28;19928;-78
2022/03/05 11:20:32;;;;;;;;;;;9.70;52.90;;;8.06;39.71;100951.53;5033205;28;20016;-77
2022/03/05 11:22:59;;;;;;;;;;;8.10;51.10;;;8.16;39.54;100960.22;5053646;28;19928;-76
2022/03/05 11:25:27;;;;;;;;;;;8.20;51.00;;;8.13;39.12;100960.22;5045281;28;19935;-78
2022/03/05 11:27:57;;;;;;;;;;;8.30;50.30;;;8.23;38.79;100951.44;5064225;28;19928;-77
2022/03/05 11:30:26;;;;;;;;;;;8.30;49.50;;;8.25;37.52;100947.03;5041827;28;19998;-78
2022/03/05 11:32:53;;;;;;;;;;;8.40;48.50;;;8.24;35.72;100947.91;5030366;28;19929;-77
2022/03/05 11:35:25;;;;;;;;;;;8.40;46.00;;;8.26;34.43;100947.94;5040970;28;19925;-76
2022/03/05 11:37:52;;;;;;;;;;;8.40;44.50;;;8.34;34.10;100948.75;5044759;28;19987;-75
2022/03/05 11:40:38;;;;;;;;;;;9.60;44.10;;;8.55;35.33;100937.28;5045847;28;19929;-75
2022/03/05 11:43:40;;;;;;;;;;;8.60;44.90;;;8.58;36.57;100941.66;5044052;28;19947;-76
2022/03/05 11:46:19;;;;;;;;;;;8.70;45.40;;;8.69;36.95;100933.72;5052845;28;20019;-76
2022/03/05 11:49:08;;;;;;;;;;;8.80;46.60;;;8.70;36.95;100931.09;5047100;28;19932;-76